sensor_id;sensor_type;location;lat;lon;timestamp;temperature;humidity
57564;DHT22;43400;45.926;6.724;2023-04-03T00:02:16;7.90;99.90
57564;DHT22;43400;45.926;6.724;2023-04-03T00:04:48;7.80;99.90
57564;DHT22;43400;45.926;6.724;2023-04-03T00:07:20;7.80;99.90
57564;DHT22;43400;45.926;6.724;2023-04-03T00:09:51;7.80;99.90
57564;DHT22;43400;45.926;6.724;2023-04-03T00:12:25;7.70;99.90
57564;DHT22;43400;45.926;6.724;2023-04-03T00:14:57;7.70;99.90
57564;DHT22;43400;45.926;6.724;2023-04-03T00:17:29;7.70;99.90
57564;DHT22;43400;45.926;6.724;2023-04-03T00:20:01;7.60;99.90
57564;DHT22;43400;45.926;6.724;2023-04-03T00:22:35;7.70;99.90
57564;DHT22;43400;45.926;6.724;2023-04-03T00:25:08;7.70;99.90
57564;DHT22;43400;45.926;6.724;2023-04-03T00:27:42;7.60;99.90
57564;DHT22;43400;45.926;6.724;2023-04-03T00:30:17;7.60;99.90
57564;DHT22;43400;45.926;6.724;2023-04-03T00:32:52;7.60;99.90
57564;DHT22;43400;45.926;6.724;2023-04-03T00:35:24;7.60;99.90
57564;DHT22;43400;45.926;6.724;2023-04-03T00:37:56;7.70;99.90
57564;DHT22;43400;45.926;6.724;2023-04-03T00:40:28;7.60;99.90
57564;DHT22;43400;45.926;6.724;2023-04-03T00:43:22;7.60;99.90
57564;DHT22;43400;45.926;6.724;2023-04-03T00:45:56;7.60;99.90
57564;DHT22;43400;45.926;6.724;2023-04-03T00:48:36;7.60;99.90
57564;DHT22;43400;45.926;6.724;2023-04-03T00:51:14;7.60;99.90
57564;DHT22;43400;45.926;6.724;2023-04-03T00:54:01;7.60;99.90
57564;DHT22;43400;45.926;6.724;2023-04-03T00:56:36;7.60;99.90
57564;DHT22;43400;45.926;6.724;2023-04-03T00:59:15;7.60;99.90
57564;DHT22;43400;45.926;6.724;2023-04-03T01:01:48;7.50;99.90
57564;DHT22;43400;45.926;6.724;2023-04-03T01:07:04;7.50;99.90
57564;DHT22;43400;45.926;6.724;2023-04-03T01:09:38;7.40;99.90
57564;DHT22;43400;45.926;6.724;2023-04-03T01:12:18;7.50;99.90
57564;DHT22;43400;45.926;6.724;2023-04-03T01:14:58;7.50;99.90
57564;DHT22;43400;45.926;6.724;2023-04-03T01:17:48;7.50;99.90
57564;DHT22;43400;45.926;6.724;2023-04-03T01:25:53;7.30;99.90
57564;DHT22;43400;45.926;6.724;2023-04-03T01:31:15;7.30;99.90
57564;DHT22;43400;45.926;6.724;2023-04-03T01:33:50;7.40;99.90
57564;DHT22;43400;45.926;6.724;2023-04-03T01:36:24;7.50;99.90
57564;DHT22;43400;45.926;6.724;2023-04-03T01:38:58;7.40;99.90
57564;DHT22;43400;45.926;6.724;2023-04-03T01:41:30;7.50;99.90
57564;DHT22;43400;45.926;6.724;2023-04-03T01:44:01;7.50;99.90
57564;DHT22;43400;45.926;6.724;2023-04-03T01:46:33;7.40;99.90
57564;DHT22;43400;45.926;6.724;2023-04-03T01:49:05;7.30;99.90
57564;DHT22;43400;45.926;6.724;2023-04-03T01:51:36;7.40;99.90
57564;DHT22;43400;45.926;6.724;2023-04-03T01:54:08;7.40;99.90
57564;DHT22;43400;45.926;6.724;2023-04-03T01:56:39;7.40;99.90
57564;DHT22;43400;45.926;6.724;2023-04-03T01:59:11;7.40;99.90
57564;DHT22;43400;45.926;6.724;2023-04-03T02:01:43;7.50;99.90
57564;DHT22;43400;45.926;6.724;2023-04-03T02:04:14;7.50;99.90
57564;DHT22;43400;45.926;6.724;2023-04-03T02:06:46;7.50;99.90
57564;DHT22;43400;45.926;6.724;2023-04-03T02:09:18;7.50;99.90
57564;DHT22;43400;45.926;6.724;2023-04-03T02:11:49;7.50;99.90
57564;DHT22;43400;45.926;6.724;2023-04-03T02:14:21;7.40;99.90
57564;DHT22;43400;45.926;6.724;2023-04-03T02:16:53;7.30;99.90
57564;DHT22;43400;45.926;6.724;2023-04-03T02:19:24;7.30;99.90
57564;DHT22;43400;45.926;6.724;2023-04-03T02:21:56;7.30;99.90
57564;DHT22;43400;45.926;6.724;2023-04-03T02:24:28;7.30;99.90
57564;DHT22;43400;45.926;6.724;2023-04-03T02:26:59;7.30;99.90
57564;DHT22;43400;45.926;6.724;2023-04-03T02:29:31;7.30;99.90
57564;DHT22;43400;45.926;6.724;2023-04-03T02:32:03;7.20;99.90
57564;DHT22;43400;45.926;6.724;2023-04-03T02:34:34;7.30;99.90
57564;DHT22;43400;45.926;6.724;2023-04-03T02:37:06;7.20;99.90
57564;DHT22;43400;45.926;6.724;2023-04-03T02:39:38;7.20;99.90
57564;DHT22;43400;45.926;6.724;2023-04-03T02:42:09;7.20;99.90
57564;DHT22;43400;45.926;6.724;2023-04-03T02:44:41;7.20;99.90
57564;DHT22;43400;45.926;6.724;2023-04-03T02:47:12;7.20;99.90
57564;DHT22;43400;45.926;6.724;2023-04-03T02:49:44;7.20;99.90
57564;DHT22;43400;45.926;6.724;2023-04-03T02:52:15;7.20;99.90
57564;DHT22;43400;45.926;6.724;2023-04-03T02:54:47;7.10;99.90
57564;DHT22;43400;45.926;6.724;2023-04-03T02:57:19;7.20;99.90
57564;DHT22;43400;45.926;6.724;2023-04-03T02:59:50;7.20;99.90
57564;DHT22;43400;45.926;6.724;2023-04-03T03:02:22;7.20;99.90
57564;DHT22;43400;45.926;6.724;2023-04-03T03:04:53;7.20;99.90
57564;DHT22;43400;45.926;6.724;2023-04-03T03:07:25;7.20;99.90
57564;DHT22;43400;45.926;6.724;2023-04-03T03:09:56;7.20;99.90
57564;DHT22;43400;45.926;6.724;2023-04-03T03:12:28;7.20;99.90
57564;DHT22;43400;45.926;6.724;2023-04-03T03:14:59;7.20;99.90
57564;DHT22;43400;45.926;6.724;2023-04-03T03:17:31;7.20;99.90
57564;DHT22;43400;45.926;6.724;2023-04-03T03:20:04;7.20;99.90
57564;DHT22;43400;45.926;6.724;2023-04-03T03:22:36;7.30;99.90
57564;DHT22;43400;45.926;6.724;2023-04-03T03:25:08;7.30;99.90
57564;DHT22;43400;45.926;6.724;2023-04-03T03:27:40;7.30;99.90
57564;DHT22;43400;45.926;6.724;2023-04-03T03:30:11;7.30;99.90
57564;DHT22;43400;45.926;6.724;2023-04-03T03:32:43;7.20;99.90
57564;DHT22;43400;45.926;6.724;2023-04-03T03:35:15;7.10;99.90
57564;DHT22;43400;45.926;6.724;2023-04-03T03:37:46;7.10;99.90
57564;DHT22;43400;45.926;6.724;2023-04-03T03:40:18;7.00;99.90
57564;DHT22;43400;45.926;6.724;2023-04-03T03:42:49;7.00;99.90
57564;DHT22;43400;45.926;6.724;2023-04-03T03:45:21;7.00;99.90
57564;DHT22;43400;45.926;6.724;2023-04-03T03:47:52;7.10;99.90
57564;DHT22;43400;45.926;6.724;2023-04-03T03:50:24;7.10;99.90
57564;DHT22;43400;45.926;6.724;2023-04-03T03:52:56;7.20;99.90
57564;DHT22;43400;45.926;6.724;2023-04-03T03:55:27;7.20;99.90
57564;DHT22;43400;45.926;6.724;2023-04-03T03:57:59;7.20;99.90
57564;DHT22;43400;45.926;6.724;2023-04-03T04:00:31;7.20;99.90
57564;DHT22;43400;45.926;6.724;2023-04-03T04:03:02;7.20;99.90
57564;DHT22;43400;45.926;6.724;2023-04-03T04:05:34;7.30;99.90
57564;DHT22;43400;45.926;6.724;2023-04-03T04:08:05;7.20;99.90
57564;DHT22;43400;45.926;6.724;2023-04-03T04:10:37;7.20;99.90
57564;DHT22;43400;45.926;6.724;2023-04-03T04:13:09;7.30;99.90
57564;DHT22;43400;45.926;6.724;2023-04-03T04:15:40;7.30;99.90
57564;DHT22;43400;45.926;6.724;2023-04-03T04:18:13;7.10;99.90
57564;DHT22;43400;45.926;6.724;2023-04-03T04:20:45;7.00;99.90
57564;DHT22;43400;45.926;6.724;2023-04-03T04:23:18;7.00;99.90
57564;DHT22;43400;45.926;6.724;2023-04-03T04:25:50;6.90;99.90
57564;DHT22;43400;45.926;6.724;2023-04-03T04:28:22;6.90;99.90
57564;DHT22;43400;45.926;6.724;2023-04-03T04:30:54;6.90;99.90
57564;DHT22;43400;45.926;6.724;2023-04-03T04:33:25;6.90;99.90
57564;DHT22;43400;45.926;6.724;2023-04-03T04:35:57;6.90;99.90
57564;DHT22;43400;45.926;6.724;2023-04-03T04:38:28;6.80;99.90
57564;DHT22;43400;45.926;6.724;2023-04-03T04:41:00;6.90;99.90
57564;DHT22;43400;45.926;6.724;2023-04-03T04:43:31;7.00;99.90
57564;DHT22;43400;45.926;6.724;2023-04-03T04:46:08;7.10;99.90
57564;DHT22;43400;45.926;6.724;2023-04-03T04:48:39;7.10;99.90
57564;DHT22;43400;45.926;6.724;2023-04-03T04:51:11;7.10;99.90
57564;DHT22;43400;45.926;6.724;2023-04-03T04:53:43;7.10;99.90
57564;DHT22;43400;45.926;6.724;2023-04-03T04:56:15;7.20;99.90
57564;DHT22;43400;45.926;6.724;2023-04-03T04:58:46;7.20;99.90
57564;DHT22;43400;45.926;6.724;2023-04-03T05:01:18;7.20;99.90
57564;DHT22;43400;45.926;6.724;2023-04-03T05:03:49;7.10;99.90
57564;DHT22;43400;45.926;6.724;2023-04-03T05:06:21;7.10;99.90
57564;DHT22;43400;45.926;6.724;2023-04-03T05:08:52;7.10;99.90
57564;DHT22;43400;45.926;6.724;2023-04-03T05:11:24;7.00;99.90
57564;DHT22;43400;45.926;6.724;2023-04-03T05:13:55;7.00;99.90
57564;DHT22;43400;45.926;6.724;2023-04-03T05:16:27;7.00;99.90
57564;DHT22;43400;45.926;6.724;2023-04-03T05:18:58;7.00;99.90
57564;DHT22;43400;45.926;6.724;2023-04-03T05:21:30;7.00;99.90
57564;DHT22;43400;45.926;6.724;2023-04-03T05:24:02;7.00;99.90
57564;DHT22;43400;45.926;6.724;2023-04-03T05:26:34;7.00;99.90
57564;DHT22;43400;45.926;6.724;2023-04-03T05:29:05;7.00;99.90
57564;DHT22;43400;45.926;6.724;2023-04-03T05:31:37;7.00;99.90
57564;DHT22;43400;45.926;6.724;2023-04-03T05:34:08;7.00;99.90
57564;DHT22;43400;45.926;6.724;2023-04-03T05:36:40;7.00;99.90
57564;DHT22;43400;45.926;6.724;2023-04-03T05:39:12;7.00;99.90
57564;DHT22;43400;45.926;6.724;2023-04-03T05:41:43;7.00;99.90
57564;DHT22;43400;45.926;6.724;2023-04-03T05:44:15;7.00;99.90
57564;DHT22;43400;45.926;6.724;2023-04-03T05:46:46;7.00;99.90
57564;DHT22;43400;45.926;6.724;2023-04-03T05:49:18;7.10;99.90
57564;DHT22;43400;45.926;6.724;2023-04-03T05:51:50;7.10;99.90
57564;DHT22;43400;45.926;6.724;2023-04-03T05:54:27;7.10;99.90
57564;DHT22;43400;45.926;6.724;2023-04-03T05:56:58;7.10;99.90
57564;DHT22;43400;45.926;6.724;2023-04-03T05:59:30;7.20;99.90
57564;DHT22;43400;45.926;6.724;2023-04-03T06:02:01;7.30;99.90
57564;DHT22;43400;45.926;6.724;2023-04-03T06:04:33;7.30;99.90
57564;DHT22;43400;45.926;6.724;2023-04-03T06:07:04;7.30;99.90
57564;DHT22;43400;45.926;6.724;2023-04-03T06:09:36;7.30;99.90
57564;DHT22;43400;45.926;6.724;2023-04-03T06:12:08;7.40;99.90
57564;DHT22;43400;45.926;6.724;2023-04-03T06:14:40;7.40;99.90
57564;DHT22;43400;45.926;6.724;2023-04-03T06:17:12;7.50;99.90
57564;DHT22;43400;45.926;6.724;2023-04-03T06:19:44;7.50;99.90
57564;DHT22;43400;45.926;6.724;2023-04-03T06:22:16;7.50;99.90
57564;DHT22;43400;45.926;6.724;2023-04-03T06:24:47;7.50;99.90
57564;DHT22;43400;45.926;6.724;2023-04-03T06:27:19;7.60;99.90
57564;DHT22;43400;45.926;6.724;2023-04-03T06:29:50;7.60;99.90
57564;DHT22;43400;45.926;6.724;2023-04-03T06:32:22;7.70;99.90
57564;DHT22;43400;45.926;6.724;2023-04-03T06:34:53;7.80;99.90
57564;DHT22;43400;45.926;6.724;2023-04-03T06:37:25;7.80;99.90
57564;DHT22;43400;45.926;6.724;2023-04-03T06:39:57;7.80;99.90
57564;DHT22;43400;45.926;6.724;2023-04-03T06:42:30;7.80;99.90
57564;DHT22;43400;45.926;6.724;2023-04-03T06:45:02;7.80;99.90
57564;DHT22;43400;45.926;6.724;2023-04-03T06:47:34;7.80;99.90
57564;DHT22;43400;45.926;6.724;2023-04-03T06:50:06;7.80;99.90
57564;DHT22;43400;45.926;6.724;2023-04-03T06:52:37;7.80;99.90
57564;DHT22;43400;45.926;6.724;2023-04-03T06:55:09;7.80;99.90
57564;DHT22;43400;45.926;6.724;2023-04-03T06:57:41;7.70;99.90
57564;DHT22;43400;45.926;6.724;2023-04-03T07:00:13;7.70;99.90
57564;DHT22;43400;45.926;6.724;2023-04-03T07:02:44;7.70;99.90
57564;DHT22;43400;45.926;6.724;2023-04-03T07:05:16;7.80;99.90
57564;DHT22;43400;45.926;6.724;2023-04-03T07:07:47;7.80;99.90
57564;DHT22;43400;45.926;6.724;2023-04-03T07:10:19;7.80;99.90
57564;DHT22;43400;45.926;6.724;2023-04-03T07:12:50;7.80;99.90
57564;DHT22;43400;45.926;6.724;2023-04-03T07:15:22;7.80;99.90
57564;DHT22;43400;45.926;6.724;2023-04-03T07:17:54;7.70;99.90
57564;DHT22;43400;45.926;6.724;2023-04-03T07:20:25;7.80;99.90
57564;DHT22;43400;45.926;6.724;2023-04-03T07:22:57;7.80;99.90
57564;DHT22;43400;45.926;6.724;2023-04-03T07:25:28;7.90;99.90
57564;DHT22;43400;45.926;6.724;2023-04-03T07:28:00;8.00;99.90
57564;DHT22;43400;45.926;6.724;2023-04-03T07:30:32;8.00;99.90
57564;DHT22;43400;45.926;6.724;2023-04-03T07:33:03;8.00;99.90
57564;DHT22;43400;45.926;6.724;2023-04-03T07:35:35;8.00;99.90
57564;DHT22;43400;45.926;6.724;2023-04-03T07:38:07;8.00;99.90
57564;DHT22;43400;45.926;6.724;2023-04-03T07:40:39;8.10;99.90
57564;DHT22;43400;45.926;6.724;2023-04-03T07:43:12;8.20;99.90
57564;DHT22;43400;45.926;6.724;2023-04-03T07:45:44;8.20;99.90
57564;DHT22;43400;45.926;6.724;2023-04-03T07:48:18;8.20;99.90
57564;DHT22;43400;45.926;6.724;2023-04-03T07:50:50;8.40;99.90
57564;DHT22;43400;45.926;6.724;2023-04-03T07:53:21;8.40;99.90
57564;DHT22;43400;45.926;6.724;2023-04-03T07:55:53;8.30;99.70
57564;DHT22;43400;45.926;6.724;2023-04-03T07:58:25;8.40;99.90
57564;DHT22;43400;45.926;6.724;2023-04-03T08:00:57;8.40;99.90
57564;DHT22;43400;45.926;6.724;2023-04-03T08:03:28;8.50;99.90
57564;DHT22;43400;45.926;6.724;2023-04-03T08:06:04;8.60;99.90
57564;DHT22;43400;45.926;6.724;2023-04-03T08:08:36;8.60;99.10
57564;DHT22;43400;45.926;6.724;2023-04-03T08:11:09;8.70;98.80
57564;DHT22;43400;45.926;6.724;2023-04-03T08:13:41;8.80;97.90
57564;DHT22;43400;45.926;6.724;2023-04-03T08:16:17;8.90;97.60
57564;DHT22;43400;45.926;6.724;2023-04-03T08:18:49;8.90;96.50
57564;DHT22;43400;45.926;6.724;2023-04-03T08:21:21;8.70;95.50
57564;DHT22;43400;45.926;6.724;2023-04-03T08:23:52;8.70;96.30
57564;DHT22;43400;45.926;6.724;2023-04-03T08:26:24;8.70;95.50
57564;DHT22;43400;45.926;6.724;2023-04-03T08:28:56;8.80;94.40
57564;DHT22;43400;45.926;6.724;2023-04-03T08:31:27;9.00;94.60
57564;DHT22;43400;45.926;6.724;2023-04-03T08:33:59;9.10;94.60
57564;DHT22;43400;45.926;6.724;2023-04-03T08:36:30;9.10;94.40
57564;DHT22;43400;45.926;6.724;2023-04-03T08:39:02;9.10;93.60
57564;DHT22;43400;45.926;6.724;2023-04-03T08:41:37;9.10;92.70
57564;DHT22;43400;45.926;6.724;2023-04-03T08:50:01;9.40;92.40
57564;DHT22;43400;45.926;6.724;2023-04-03T08:52:38;9.40;91.40
57564;DHT22;43400;45.926;6.724;2023-04-03T08:55:31;9.60;90.90
57564;DHT22;43400;45.926;6.724;2023-04-03T08:58:06;9.70;90.70
57564;DHT22;43400;45.926;6.724;2023-04-03T09:03:20;9.70;90.50
57564;DHT22;43400;45.926;6.724;2023-04-03T09:11:27;9.90;89.20
57564;DHT22;43400;45.926;6.724;2023-04-03T09:23:25;10.30;84.50
57564;DHT22;43400;45.926;6.724;2023-04-03T09:26:15;10.30;83.30
57564;DHT22;43400;45.926;6.724;2023-04-03T09:28:48;10.50;81.40
57564;DHT22;43400;45.926;6.724;2023-04-03T09:31:25;10.70;84.00
57564;DHT22;43400;45.926;6.724;2023-04-03T09:34:01;10.90;85.50
57564;DHT22;43400;45.926;6.724;2023-04-03T09:39:24;11.20;87.90
57564;DHT22;43400;45.926;6.724;2023-04-03T09:44:36;10.90;80.50
57564;DHT22;43400;45.926;6.724;2023-04-03T09:47:23;11.00;82.90
57564;DHT22;43400;45.926;6.724;2023-04-03T09:52:47;11.10;82.10
57564;DHT22;43400;45.926;6.724;2023-04-03T09:55:25;11.20;81.80
57564;DHT22;43400;45.926;6.724;2023-04-03T09:58:05;11.20;79.50
57564;DHT22;43400;45.926;6.724;2023-04-03T10:01:00;11.20;78.30
57564;DHT22;43400;45.926;6.724;2023-04-03T10:03:36;11.40;77.90
57564;DHT22;43400;45.926;6.724;2023-04-03T10:06:23;11.50;76.50
57564;DHT22;43400;45.926;6.724;2023-04-03T10:09:00;11.70;81.50
57564;DHT22;43400;45.926;6.724;2023-04-03T10:11:32;11.60;76.70
57564;DHT22;43400;45.926;6.724;2023-04-03T10:14:04;11.70;78.30
57564;DHT22;43400;45.926;6.724;2023-04-03T10:16:40;11.70;77.20
57564;DHT22;43400;45.926;6.724;2023-04-03T10:22:15;12.10;80.00
57564;DHT22;43400;45.926;6.724;2023-04-03T10:25:02;12.70;77.70
57564;DHT22;43400;45.926;6.724;2023-04-03T10:30:20;12.40;74.10
57564;DHT22;43400;45.926;6.724;2023-04-03T10:38:22;12.90;71.80
57564;DHT22;43400;45.926;6.724;2023-04-03T10:41:12;12.90;71.60
57564;DHT22;43400;45.926;6.724;2023-04-03T10:44:16;12.70;71.90
57564;DHT22;43400;45.926;6.724;2023-04-03T10:47:32;12.30;71.80
57564;DHT22;43400;45.926;6.724;2023-04-03T10:53:14;13.10;73.00
57564;DHT22;43400;45.926;6.724;2023-04-03T10:56:04;13.70;73.60
57564;DHT22;43400;45.926;6.724;2023-04-03T10:58:40;13.90;67.30
57564;DHT22;43400;45.926;6.724;2023-04-03T11:01:19;14.20;67.70
57564;DHT22;43400;45.926;6.724;2023-04-03T11:03:59;14.70;64.30
57564;DHT22;43400;45.926;6.724;2023-04-03T11:06:37;15.30;62.20
57564;DHT22;43400;45.926;6.724;2023-04-03T11:09:21;15.40;60.10
57564;DHT22;43400;45.926;6.724;2023-04-03T11:11:57;16.00;59.40
57564;DHT22;43400;45.926;6.724;2023-04-03T11:14:36;16.30;60.60
57564;DHT22;43400;45.926;6.724;2023-04-03T11:20:18;17.00;57.20
57564;DHT22;43400;45.926;6.724;2023-04-03T11:22:57;16.00;56.20
57564;DHT22;43400;45.926;6.724;2023-04-03T11:25:35;15.00;61.00
57564;DHT22;43400;45.926;6.724;2023-04-03T11:28:13;14.50;59.90
57564;DHT22;43400;45.926;6.724;2023-04-03T11:36:56;14.50;60.80
57564;DHT22;43400;45.926;6.724;2023-04-03T11:39:32;15.80;62.70
57564;DHT22;43400;45.926;6.724;2023-04-03T11:42:28;15.90;59.10
57564;DHT22;43400;45.926;6.724;2023-04-03T11:50:56;16.70;57.70
57564;DHT22;43400;45.926;6.724;2023-04-03T11:53:33;16.70;57.50
57564;DHT22;43400;45.926;6.724;2023-04-03T12:01:50;16.20;57.50
57564;DHT22;43400;45.926;6.724;2023-04-03T12:04:26;15.60;59.00
57564;DHT22;43400;45.926;6.724;2023-04-03T12:07:11;15.30;61.00
57564;DHT22;43400;45.926;6.724;2023-04-03T12:12:37;16.60;56.40
57564;DHT22;43400;45.926;6.724;2023-04-03T12:15:21;16.80;59.10
57564;DHT22;43400;45.926;6.724;2023-04-03T12:18:46;17.50;56.80
57564;DHT22;43400;45.926;6.724;2023-04-03T12:24:29;17.30;54.20
57564;DHT22;43400;45.926;6.724;2023-04-03T12:27:18;16.50;53.30
57564;DHT22;43400;45.926;6.724;2023-04-03T12:36:03;17.80;54.20
57564;DHT22;43400;45.926;6.724;2023-04-03T12:41:46;18.00;53.10
57564;DHT22;43400;45.926;6.724;2023-04-03T12:47:43;18.90;54.80
57564;DHT22;43400;45.926;6.724;2023-04-03T12:53:17;19.00;50.10
57564;DHT22;43400;45.926;6.724;2023-04-03T12:55:57;18.80;49.90
57564;DHT22;43400;45.926;6.724;2023-04-03T12:58:28;18.40;52.70
57564;DHT22;43400;45.926;6.724;2023-04-03T13:01:02;19.30;54.50
57564;DHT22;43400;45.926;6.724;2023-04-03T13:03:41;19.60;50.60
57564;DHT22;43400;45.926;6.724;2023-04-03T13:06:23;19.30;52.80
57564;DHT22;43400;45.926;6.724;2023-04-03T13:08:57;19.20;52.90
57564;DHT22;43400;45.926;6.724;2023-04-03T13:11:49;18.80;52.90
57564;DHT22;43400;45.926;6.724;2023-04-03T13:14:23;19.60;54.10
57564;DHT22;43400;45.926;6.724;2023-04-03T13:17:12;19.90;55.00
57564;DHT22;43400;45.926;6.724;2023-04-03T13:19:45;19.20;53.00
57564;DHT22;43400;45.926;6.724;2023-04-03T13:25:05;19.50;52.70
57564;DHT22;43400;45.926;6.724;2023-04-03T13:27:39;19.60;53.60
57564;DHT22;43400;45.926;6.724;2023-04-03T13:30:27;18.80;54.10
57564;DHT22;43400;45.926;6.724;2023-04-03T13:33:03;19.20;55.70
57564;DHT22;43400;45.926;6.724;2023-04-03T13:35:40;19.50;53.10
57564;DHT22;43400;45.926;6.724;2023-04-03T13:40:58;18.90;52.50
57564;DHT22;43400;45.926;6.724;2023-04-03T13:43:34;19.20;53.10
57564;DHT22;43400;45.926;6.724;2023-04-03T13:48:52;18.50;54.70
57564;DHT22;43400;45.926;6.724;2023-04-03T13:51:27;19.30;52.70
57564;DHT22;43400;45.926;6.724;2023-04-03T13:54:01;19.90;51.10
57564;DHT22;43400;45.926;6.724;2023-04-03T13:56:44;20.10;50.60
57564;DHT22;43400;45.926;6.724;2023-04-03T14:04:49;19.50;51.90
57564;DHT22;43400;45.926;6.724;2023-04-03T14:07:21;19.80;50.10
57564;DHT22;43400;45.926;6.724;2023-04-03T14:09:53;19.00;51.60
57564;DHT22;43400;45.926;6.724;2023-04-03T14:12:43;18.60;52.20
57564;DHT22;43400;45.926;6.724;2023-04-03T14:15:22;19.20;50.80
57564;DHT22;43400;45.926;6.724;2023-04-03T14:17:54;19.30;50.00
57564;DHT22;43400;45.926;6.724;2023-04-03T14:20:27;18.70;51.20
57564;DHT22;43400;45.926;6.724;2023-04-03T14:22:59;19.30;49.90
57564;DHT22;43400;45.926;6.724;2023-04-03T14:25:31;18.90;50.40
57564;DHT22;43400;45.926;6.724;2023-04-03T14:28:18;18.90;50.30
57564;DHT22;43400;45.926;6.724;2023-04-03T14:30:50;19.50;50.50
57564;DHT22;43400;45.926;6.724;2023-04-03T14:33:22;19.50;49.90
57564;DHT22;43400;45.926;6.724;2023-04-03T14:35:54;19.90;49.20
57564;DHT22;43400;45.926;6.724;2023-04-03T14:38:29;20.30;48.10
57564;DHT22;43400;45.926;6.724;2023-04-03T14:41:00;20.60;49.10
57564;DHT22;43400;45.926;6.724;2023-04-03T14:43:32;20.90;49.80
57564;DHT22;43400;45.926;6.724;2023-04-03T14:46:04;20.70;49.20
57564;DHT22;43400;45.926;6.724;2023-04-03T14:48:36;20.00;48.50
57564;DHT22;43400;45.926;6.724;2023-04-03T14:51:11;19.40;49.80
57564;DHT22;43400;45.926;6.724;2023-04-03T14:53:44;19.80;49.70
57564;DHT22;43400;45.926;6.724;2023-04-03T14:56:19;20.10;50.50
57564;DHT22;43400;45.926;6.724;2023-04-03T14:58:56;19.60;49.90
57564;DHT22;43400;45.926;6.724;2023-04-03T15:01:29;19.80;48.90
57564;DHT22;43400;45.926;6.724;2023-04-03T15:04:00;19.60;51.30
57564;DHT22;43400;45.926;6.724;2023-04-03T15:06:33;19.10;51.00
57564;DHT22;43400;45.926;6.724;2023-04-03T15:09:04;18.80;50.80
57564;DHT22;43400;45.926;6.724;2023-04-03T15:11:36;19.20;50.40
57564;DHT22;43400;45.926;6.724;2023-04-03T15:14:09;19.10;50.80
57564;DHT22;43400;45.926;6.724;2023-04-03T15:16:41;18.80;52.10
57564;DHT22;43400;45.926;6.724;2023-04-03T15:19:13;18.20;51.30
57564;DHT22;43400;45.926;6.724;2023-04-03T15:21:44;18.10;52.40
57564;DHT22;43400;45.926;6.724;2023-04-03T15:24:16;18.40;52.60
57564;DHT22;43400;45.926;6.724;2023-04-03T15:26:48;18.10;51.80
57564;DHT22;43400;45.926;6.724;2023-04-03T15:29:19;18.20;53.30
57564;DHT22;43400;45.926;6.724;2023-04-03T15:31:51;18.40;53.30
57564;DHT22;43400;45.926;6.724;2023-04-03T15:34:22;18.20;52.30
57564;DHT22;43400;45.926;6.724;2023-04-03T15:36:54;18.40;53.60
57564;DHT22;43400;45.926;6.724;2023-04-03T15:39:26;17.80;53.40
57564;DHT22;43400;45.926;6.724;2023-04-03T15:41:58;17.70;52.80
57564;DHT22;43400;45.926;6.724;2023-04-03T15:44:29;17.60;52.10
57564;DHT22;43400;45.926;6.724;2023-04-03T15:47:02;16.80;53.30
57564;DHT22;43400;45.926;6.724;2023-04-03T15:49:34;16.00;55.30
57564;DHT22;43400;45.926;6.724;2023-04-03T15:52:06;15.70;55.20
57564;DHT22;43400;45.926;6.724;2023-04-03T15:54:37;15.20;56.20
57564;DHT22;43400;45.926;6.724;2023-04-03T15:57:09;14.70;57.80
57564;DHT22;43400;45.926;6.724;2023-04-03T15:59:41;14.40;58.40
57564;DHT22;43400;45.926;6.724;2023-04-03T16:02:13;13.90;58.70
57564;DHT22;43400;45.926;6.724;2023-04-03T16:04:44;13.80;59.40
57564;DHT22;43400;45.926;6.724;2023-04-03T16:07:16;13.40;59.60
57564;DHT22;43400;45.926;6.724;2023-04-03T16:09:48;13.70;60.40
57564;DHT22;43400;45.926;6.724;2023-04-03T16:12:19;14.20;60.10
57564;DHT22;43400;45.926;6.724;2023-04-03T16:14:51;14.20;58.90
57564;DHT22;43400;45.926;6.724;2023-04-03T16:17:22;14.00;58.40
57564;DHT22;43400;45.926;6.724;2023-04-03T16:19:54;13.90;59.10
57564;DHT22;43400;45.926;6.724;2023-04-03T16:22:27;14.00;58.10
57564;DHT22;43400;45.926;6.724;2023-04-03T16:25:01;13.70;60.00
57564;DHT22;43400;45.926;6.724;2023-04-03T16:27:33;13.70;59.60
57564;DHT22;43400;45.926;6.724;2023-04-03T16:30:05;13.80;59.30
57564;DHT22;43400;45.926;6.724;2023-04-03T16:32:39;13.70;59.50
57564;DHT22;43400;45.926;6.724;2023-04-03T16:35:11;13.60;59.40
57564;DHT22;43400;45.926;6.724;2023-04-03T16:37:42;13.30;59.60
57564;DHT22;43400;45.926;6.724;2023-04-03T16:40:14;13.20;60.40
57564;DHT22;43400;45.926;6.724;2023-04-03T16:42:45;13.30;60.20
57564;DHT22;43400;45.926;6.724;2023-04-03T16:45:17;13.20;61.90
57564;DHT22;43400;45.926;6.724;2023-04-03T16:47:49;13.00;59.90
57564;DHT22;43400;45.926;6.724;2023-04-03T16:50:20;12.70;61.00
57564;DHT22;43400;45.926;6.724;2023-04-03T16:52:52;12.90;61.30
57564;DHT22;43400;45.926;6.724;2023-04-03T16:55:24;12.80;60.90
57564;DHT22;43400;45.926;6.724;2023-04-03T16:57:55;12.40;61.60
57564;DHT22;43400;45.926;6.724;2023-04-03T17:00:30;12.40;62.20
57564;DHT22;43400;45.926;6.724;2023-04-03T17:03:02;12.20;62.00
57564;DHT22;43400;45.926;6.724;2023-04-03T17:05:33;12.10;62.30
57564;DHT22;43400;45.926;6.724;2023-04-03T17:08:05;12.10;63.30
57564;DHT22;43400;45.926;6.724;2023-04-03T17:10:36;11.90;63.20
57564;DHT22;43400;45.926;6.724;2023-04-03T17:13:08;11.70;63.70
57564;DHT22;43400;45.926;6.724;2023-04-03T17:15:40;11.60;63.80
57564;DHT22;43400;45.926;6.724;2023-04-03T17:18:11;11.50;63.70
57564;DHT22;43400;45.926;6.724;2023-04-03T17:20:43;11.20;63.90
57564;DHT22;43400;45.926;6.724;2023-04-03T17:23:14;11.00;65.10
57564;DHT22;43400;45.926;6.724;2023-04-03T17:25:46;10.70;65.40
57564;DHT22;43400;45.926;6.724;2023-04-03T17:28:18;10.50;66.40
57564;DHT22;43400;45.926;6.724;2023-04-03T17:30:50;10.30;67.30
57564;DHT22;43400;45.926;6.724;2023-04-03T17:33:22;10.20;67.90
57564;DHT22;43400;45.926;6.724;2023-04-03T17:35:56;10.10;68.00
57564;DHT22;43400;45.926;6.724;2023-04-03T17:38:30;10.00;68.30
57564;DHT22;43400;45.926;6.724;2023-04-03T17:41:05;9.90;69.30
57564;DHT22;43400;45.926;6.724;2023-04-03T17:43:36;9.90;68.40
57564;DHT22;43400;45.926;6.724;2023-04-03T17:46:09;9.70;68.90
57564;DHT22;43400;45.926;6.724;2023-04-03T17:48:41;9.80;69.90
57564;DHT22;43400;45.926;6.724;2023-04-03T17:51:16;9.70;69.40
57564;DHT22;43400;45.926;6.724;2023-04-03T17:53:49;9.50;69.50
57564;DHT22;43400;45.926;6.724;2023-04-03T17:56:23;9.30;69.50
57564;DHT22;43400;45.926;6.724;2023-04-03T17:58:55;9.40;70.80
57564;DHT22;43400;45.926;6.724;2023-04-03T18:01:29;9.20;70.30
57564;DHT22;43400;45.926;6.724;2023-04-03T18:04:03;9.10;70.80
57564;DHT22;43400;45.926;6.724;2023-04-03T18:06:44;9.00;71.10
57564;DHT22;43400;45.926;6.724;2023-04-03T18:09:23;8.90;71.30
57564;DHT22;43400;45.926;6.724;2023-04-03T18:11:56;8.90;71.60
57564;DHT22;43400;45.926;6.724;2023-04-03T18:14:28;8.80;71.90
57564;DHT22;43400;45.926;6.724;2023-04-03T18:17:00;8.80;71.80